Time;durP1;ratioP1;P1;durP2;ratioP2;P2;SDS_P1;SDS_P2;PMS_P1;PMS_P2;Temp;Humidity;BMP_temperature;BMP_pressure;BME280_temperature;BME280_humidity;BME280_pressure;Samples;Min_cycle;Max_cycle;Signal;HPM_P1;HPM_P2
2021/11/14 00:01:36;;;;;;;13.25;6.50;;;;;;;;;;4986948;28;20058;-72
2021/11/14 00:04:02;;;;;;;17.02;6.75;;;;;;;;;;4983932;28;20101;-72
2021/11/14 00:06:27;;;;;;;15.25;7.28;;;;;;;;;;4986289;28;20554;-72
2021/11/14 00:08:53;;;;;;;19.83;6.93;;;;;;;;;;4980454;28;20158;-72
2021/11/14 00:11:19;;;;;;;14.82;6.28;;;;;;;;;;4987469;28;20049;-72
2021/11/14 00:13:45;;;;;;;13.45;6.10;;;;;;;;;;4991568;28;20033;-72
2021/11/14 00:16:11;;;;;;;15.30;6.40;;;;;;;;;;4993271;28;20026;-72
2021/11/14 00:18:40;;;;;;;16.52;7.45;;;;;;;;;;4982482;28;20033;-72
2021/11/14 00:21:05;;;;;;;20.95;7.90;;;;;;;;;;4980356;28;20018;-72
2021/11/14 00:23:31;;;;;;;42.50;8.38;;;;;;;;;;4979136;28;20018;-72
2021/11/14 00:25:56;;;;;;;29.33;7.90;;;;;;;;;;4981501;28;20090;-72
2021/11/14 00:28:22;;;;;;;36.10;10.65;;;;;;;;;;4975069;28;20383;-72
2021/11/14 00:30:47;;;;;;;28.25;8.40;;;;;;;;;;4973713;28;20042;-72
2021/11/14 00:33:14;;;;;;;23.27;7.38;;;;;;;;;;4974065;28;20066;-72
2021/11/14 00:35:40;;;;;;;27.30;7.20;;;;;;;;;;4975492;28;20031;-72
2021/11/14 00:38:06;;;;;;;19.63;7.30;;;;;;;;;;4976949;28;20372;-72
2021/11/14 00:40:32;;;;;;;27.23;7.45;;;;;;;;;;4985441;28;20467;-72
2021/11/14 00:42:58;;;;;;;18.73;7.65;;;;;;;;;;4975863;28;20387;-72
2021/11/14 00:45:24;;;;;;;20.15;7.10;;;;;;;;;;4976369;28;20014;-72
2021/11/14 00:47:49;;;;;;;19.33;7.20;;;;;;;;;;4983063;28;20494;-72
2021/11/14 00:50:15;;;;;;;15.98;7.05;;;;;;;;;;4986890;28;20069;-72
2021/11/14 00:52:41;;;;;;;15.82;6.97;;;;;;;;;;4983706;28;20554;-72
2021/11/14 00:55:08;;;;;;;20.60;7.10;;;;;;;;;;4977426;28;20455;-72
2021/11/14 00:57:33;;;;;;;24.80;8.10;;;;;;;;;;4981017;28;20041;-72
2021/11/14 00:59:58;;;;;;;12.02;6.10;;;;;;;;;;4981678;28;20019;-72
2021/11/14 01:02:24;;;;;;;11.70;6.22;;;;;;;;;;4986171;28;20030;-72
2021/11/14 01:04:49;;;;;;;13.35;6.72;;;;;;;;;;4991598;28;20106;-72
2021/11/14 01:07:14;;;;;;;17.50;7.15;;;;;;;;;;4989030;28;20030;-72
2021/11/14 01:09:40;;;;;;;17.23;6.97;;;;;;;;;;4992214;28;20472;-72
2021/11/14 01:12:06;;;;;;;16.05;7.18;;;;;;;;;;4985758;28;20019;-72
2021/11/14 01:14:31;;;;;;;19.88;6.88;;;;;;;;;;4992110;28;20078;-72
2021/11/14 01:16:56;;;;;;;11.70;6.82;;;;;;;;;;4988310;28;20034;-72
2021/11/14 01:19:22;;;;;;;12.20;6.75;;;;;;;;;;4990925;28;20555;-72
2021/11/14 01:21:47;;;;;;;11.65;7.18;;;;;;;;;;4986489;28;20042;-72
2021/11/14 01:24:13;;;;;;;15.27;6.35;;;;;;;;;;4990348;28;20031;-72
2021/11/14 01:26:39;;;;;;;11.48;6.93;;;;;;;;;;4978917;28;20079;-72
2021/11/14 01:29:04;;;;;;;12.32;7.03;;;;;;;;;;4990635;28;20048;-72
2021/11/14 01:31:29;;;;;;;10.38;6.10;;;;;;;;;;4989402;28;20069;-72
2021/11/14 01:33:55;;;;;;;11.68;6.35;;;;;;;;;;4992233;28;20049;-72
2021/11/14 01:36:20;;;;;;;10.90;6.28;;;;;;;;;;4978579;28;20023;-72
2021/11/14 01:38:45;;;;;;;11.98;6.50;;;;;;;;;;4985647;28;20022;-72
2021/11/14 01:41:12;;;;;;;12.95;6.47;;;;;;;;;;4989800;28;20018;-72
2021/11/14 01:43:45;;;;;;;13.20;6.57;;;;;;;;;;4976440;28;20065;-72
2021/11/14 01:46:11;;;;;;;10.63;6.20;;;;;;;;;;4985634;28;20030;-72
2021/11/14 01:48:37;;;;;;;10.25;6.10;;;;;;;;;;4980208;28;20102;-72
2021/11/14 01:51:03;;;;;;;11.65;6.80;;;;;;;;;;4987338;28;20426;-72
2021/11/14 01:53:30;;;;;;;13.80;6.47;;;;;;;;;;4990594;28;20018;-72
2021/11/14 01:55:55;;;;;;;15.50;7.75;;;;;;;;;;4979721;28;20053;-72
2021/11/14 01:58:22;;;;;;;12.18;6.30;;;;;;;;;;4985739;28;20050;-72
2021/11/14 02:00:56;;;;;;;10.30;6.72;;;;;;;;;;4973141;28;20030;-72
2021/11/14 02:03:21;;;;;;;12.55;7.40;;;;;;;;;;4989666;28;20021;-72
2021/11/14 02:05:47;;;;;;;12.00;7.05;;;;;;;;;;4974866;28;20624;-72
2021/11/14 02:08:12;;;;;;;10.88;6.25;;;;;;;;;;4977165;28;20061;-72
2021/11/14 02:10:38;;;;;;;13.60;6.85;;;;;;;;;;4981754;28;20037;-72
2021/11/14 02:13:04;;;;;;;16.20;7.90;;;;;;;;;;4972643;28;20030;-72
2021/11/14 02:15:29;;;;;;;12.00;7.70;;;;;;;;;;4987101;28;20141;-72
2021/11/14 02:17:55;;;;;;;13.02;7.22;;;;;;;;;;4975337;28;20026;-72
2021/11/14 02:20:20;;;;;;;12.57;7.38;;;;;;;;;;4992275;28;20029;-72
2021/11/14 02:22:46;;;;;;;10.98;6.45;;;;;;;;;;4979508;28;20057;-72
2021/11/14 02:25:12;;;;;;;9.48;7.10;;;;;;;;;;4989357;28;20030;-72
2021/11/14 02:27:38;;;;;;;16.08;6.30;;;;;;;;;;4984527;28;20073;-72
2021/11/14 02:30:05;;;;;;;15.45;5.65;;;;;;;;;;4978273;28;20340;-72
2021/11/14 02:32:30;;;;;;;12.18;6.60;;;;;;;;;;4990788;28;20492;-72
2021/11/14 02:34:55;;;;;;;13.63;6.57;;;;;;;;;;4979512;28;21735;-72
2021/11/14 02:37:21;;;;;;;11.23;6.70;;;;;;;;;;4974088;28;20030;-72
2021/11/14 02:39:46;;;;;;;10.18;6.45;;;;;;;;;;4981051;28;20424;-72
2021/11/14 02:42:11;;;;;;;12.88;6.90;;;;;;;;;;4983979;28;20566;-72
2021/11/14 02:44:36;;;;;;;10.43;5.85;;;;;;;;;;4989348;28;20033;-72
2021/11/14 02:47:02;;;;;;;16.13;6.40;;;;;;;;;;4987908;28;20033;-72
2021/11/14 02:49:27;;;;;;;11.73;7.05;;;;;;;;;;4979251;28;20118;-72
2021/11/14 02:51:53;;;;;;;9.93;6.07;;;;;;;;;;4987637;28;20371;-72
2021/11/14 02:54:18;;;;;;;11.90;7.10;;;;;;;;;;4978965;28;20428;-72
2021/11/14 02:56:43;;;;;;;12.48;7.57;;;;;;;;;;4981050;28;20022;-72
2021/11/14 02:59:09;;;;;;;14.07;7.97;;;;;;;;;;4972053;28;20030;-72
2021/11/14 03:01:40;;;;;;;13.02;7.72;;;;;;;;;;4973332;28;20051;-72
2021/11/14 03:04:06;;;;;;;12.57;7.50;;;;;;;;;;4975748;28;20018;-72
2021/11/14 03:06:32;;;;;;;13.85;7.70;;;;;;;;;;4993117;28;20022;-72
2021/11/14 03:08:57;;;;;;;13.40;7.45;;;;;;;;;;4980569;28;20126;-72
2021/11/14 03:11:22;;;;;;;12.23;7.75;;;;;;;;;;4975433;28;20452;-72
2021/11/14 03:13:48;;;;;;;14.43;6.63;;;;;;;;;;4975736;28;20023;-72
2021/11/14 03:16:14;;;;;;;24.42;7.85;;;;;;;;;;4992743;28;22432;-72
2021/11/14 03:18:40;;;;;;;15.35;7.13;;;;;;;;;;4983080;28;20369;-72
2021/11/14 03:21:05;;;;;;;13.70;7.32;;;;;;;;;;4979257;28;20029;-72
2021/11/14 03:23:30;;;;;;;14.55;7.90;;;;;;;;;;4994732;28;20149;-72
2021/11/14 03:25:56;;;;;;;11.35;6.97;;;;;;;;;;4983891;28;20070;-72
2021/11/14 03:28:21;;;;;;;14.00;6.97;;;;;;;;;;4976163;28;20117;-72
2021/11/14 03:30:49;;;;;;;11.85;7.65;;;;;;;;;;4974826;28;20034;-72
2021/11/14 03:33:15;;;;;;;13.18;6.97;;;;;;;;;;4980692;28;20026;-72
2021/11/14 03:35:40;;;;;;;10.35;6.50;;;;;;;;;;4991012;28;20312;-72
2021/11/14 03:38:05;;;;;;;14.38;7.70;;;;;;;;;;4979420;28;20026;-72
2021/11/14 03:40:30;;;;;;;11.50;7.35;;;;;;;;;;4976553;28;20631;-72
2021/11/14 03:42:55;;;;;;;13.63;7.28;;;;;;;;;;4984538;28;20023;-72
2021/11/14 03:45:21;;;;;;;12.95;6.63;;;;;;;;;;4977654;28;20353;-72
2021/11/14 03:47:46;;;;;;;13.13;7.25;;;;;;;;;;4984368;28;20544;-72
2021/11/14 03:50:12;;;;;;;11.90;7.43;;;;;;;;;;4988497;28;20058;-72
2021/11/14 03:52:38;;;;;;;10.25;6.65;;;;;;;;;;4989691;28;20053;-72
2021/11/14 03:55:03;;;;;;;12.27;7.57;;;;;;;;;;4988877;28;20418;-72
2021/11/14 03:57:28;;;;;;;16.17;7.38;;;;;;;;;;4991532;28;20022;-72
2021/11/14 03:59:54;;;;;;;11.20;7.00;;;;;;;;;;4981867;28;20026;-72
2021/11/14 04:02:19;;;;;;;12.90;6.93;;;;;;;;;;4983490;28;20396;-72
2021/11/14 04:04:44;;;;;;;14.68;7.55;;;;;;;;;;4990492;28;20109;-72
2021/11/14 04:07:09;;;;;;;13.60;7.25;;;;;;;;;;4981367;28;20050;-72
2021/11/14 04:09:34;;;;;;;12.90;6.47;;;;;;;;;;4981884;28;20058;-72
2021/11/14 04:12:03;;;;;;;10.73;6.80;;;;;;;;;;4991441;28;20037;-72
2021/11/14 04:14:28;;;;;;;15.75;6.88;;;;;;;;;;4977162;28;20030;-72
2021/11/14 04:19:21;;;;;;;9.98;6.03;;;;;;;;;;5011256;28;20311;-67
2021/11/14 04:21:46;;;;;;;12.60;6.03;;;;;;;;;;5012836;28;20021;-68
2021/11/14 04:24:11;;;;;;;9.95;5.35;;;;;;;;;;5013157;28;20026;-66
2021/11/14 04:26:37;;;;;;;13.60;6.20;;;;;;;;;;5024221;28;20022;-66
2021/11/14 04:29:03;;;;;;;12.70;7.15;;;;;;;;;;5013538;28;20020;-66
2021/11/14 04:31:28;;;;;;;11.13;6.50;;;;;;;;;;5014211;28;20025;-66
2021/11/14 04:33:53;;;;;;;11.35;6.35;;;;;;;;;;5013262;28;20050;-66
2021/11/14 04:36:19;;;;;;;10.80;7.20;;;;;;;;;;5011877;28;20066;-67
2021/11/14 04:38:44;;;;;;;13.02;5.95;;;;;;;;;;5011786;28;20458;-67
2021/11/14 04:41:09;;;;;;;12.88;6.43;;;;;;;;;;5012051;28;20513;-66
2021/11/14 04:43:34;;;;;;;10.27;6.47;;;;;;;;;;5012890;28;20033;-66
2021/11/14 04:46:00;;;;;;;11.27;6.65;;;;;;;;;;5012123;28;20018;-66
2021/11/14 04:48:25;;;;;;;13.95;6.38;;;;;;;;;;5012081;28;20026;-66
2021/11/14 04:50:51;;;;;;;9.60;6.05;;;;;;;;;;5012419;28;20446;-66
2021/11/14 04:53:17;;;;;;;8.85;5.82;;;;;;;;;;5012210;28;20509;-66
2021/11/14 04:55:42;;;;;;;11.80;6.05;;;;;;;;;;5010158;28;20089;-66
2021/11/14 04:58:08;;;;;;;10.57;6.20;;;;;;;;;;5006378;28;20045;-66
2021/11/14 05:00:36;;;;;;;10.93;6.45;;;;;;;;;;5009916;28;20348;-66
2021/11/14 05:03:01;;;;;;;13.32;6.90;;;;;;;;;;5007383;28;20026;-66
2021/11/14 05:05:26;;;;;;;12.43;6.15;;;;;;;;;;5009598;28;20490;-66
2021/11/14 05:07:52;;;;;;;11.32;6.78;;;;;;;;;;5008585;28;20021;-66
2021/11/14 05:10:17;;;;;;;12.27;5.88;;;;;;;;;;5008720;28;20026;-66
2021/11/14 05:12:42;;;;;;;9.30;6.03;;;;;;;;;;5009805;28;20438;-66
2021/11/14 05:15:08;;;;;;;10.15;5.30;;;;;;;;;;5010419;28;20144;-66
2021/11/14 05:17:33;;;;;;;11.23;6.65;;;;;;;;;;5008616;28;20397;-66
2021/11/14 05:19:59;;;;;;;10.35;6.80;;;;;;;;;;5007835;28;20025;-66
2021/11/14 05:22:24;;;;;;;10.25;6.68;;;;;;;;;;5011327;28;20292;-66
2021/11/14 05:24:49;;;;;;;12.23;6.90;;;;;;;;;;5010952;28;20389;-66
2021/11/14 05:27:14;;;;;;;12.75;6.38;;;;;;;;;;5011433;28;20483;-66
2021/11/14 05:29:39;;;;;;;12.93;6.60;;;;;;;;;;5010998;28;20529;-66
2021/11/14 05:32:05;;;;;;;9.93;6.95;;;;;;;;;;5011120;28;20650;-66
2021/11/14 05:34:30;;;;;;;11.00;6.18;;;;;;;;;;5012232;28;20530;-66
2021/11/14 05:36:55;;;;;;;10.07;6.27;;;;;;;;;;5012854;28;20030;-66
2021/11/14 05:39:20;;;;;;;8.82;5.65;;;;;;;;;;5009639;28;20261;-66
2021/11/14 05:41:46;;;;;;;10.47;6.30;;;;;;;;;;5009280;28;20057;-66
2021/11/14 05:44:11;;;;;;;10.98;7.30;;;;;;;;;;5009795;28;20271;-66
2021/11/14 05:46:36;;;;;;;8.30;6.00;;;;;;;;;;5008892;28;20010;-66
2021/11/14 05:49:06;;;;;;;9.52;5.72;;;;;;;;;;5008816;28;20025;-66
2021/11/14 05:51:32;;;;;;;9.82;5.72;;;;;;;;;;5010157;28;20068;-66
2021/11/14 05:53:57;;;;;;;10.90;7.03;;;;;;;;;;5012129;28;20455;-66
2021/11/14 05:56:22;;;;;;;11.65;7.13;;;;;;;;;;5018289;28;20451;-66
2021/11/14 05:58:53;;;;;;;14.33;6.17;;;;;;;;;;5010675;28;20038;-66
2021/11/14 06:01:27;;;;;;;9.70;6.45;;;;;;;;;;5023374;28;20264;-66
2021/11/14 06:03:57;;;;;;;10.65;6.88;;;;;;;;;;5012325;28;20136;-66
2021/11/14 06:06:23;;;;;;;12.55;6.85;;;;;;;;;;5014514;28;20024;-66
2021/11/14 06:08:48;;;;;;;12.52;6.75;;;;;;;;;;5010736;28;20113;-66
2021/11/14 06:11:13;;;;;;;14.27;6.82;;;;;;;;;;5010111;28;20053;-66
2021/11/14 06:13:38;;;;;;;9.35;6.40;;;;;;;;;;5010843;28;20014;-66
2021/11/14 06:16:04;;;;;;;13.18;7.47;;;;;;;;;;5012991;28;20026;-66
2021/11/14 06:18:29;;;;;;;10.68;6.40;;;;;;;;;;5010179;28;20038;-66
2021/11/14 06:20:55;;;;;;;14.27;8.25;;;;;;;;;;5008771;28;20045;-66
2021/11/14 06:23:20;;;;;;;13.80;7.30;;;;;;;;;;5011168;28;20033;-66
2021/11/14 06:25:45;;;;;;;13.30;6.90;;;;;;;;;;5001984;28;20049;-66
2021/11/14 06:28:10;;;;;;;12.38;7.40;;;;;;;;;;5003383;28;20014;-66
2021/11/14 06:30:37;;;;;;;11.23;6.68;;;;;;;;;;5008005;28;20076;-66
2021/11/14 06:33:02;;;;;;;15.50;7.38;;;;;;;;;;5007213;28;20023;-66
2021/11/14 06:35:27;;;;;;;13.70;7.22;;;;;;;;;;4996505;28;20072;-66
2021/11/14 06:37:52;;;;;;;12.57;7.22;;;;;;;;;;5004348;28;20030;-66
2021/11/14 06:40:18;;;;;;;15.75;7.70;;;;;;;;;;5009726;28;20469;-66
2021/11/14 06:42:43;;;;;;;14.38;7.22;;;;;;;;;;5007547;28;20032;-66
2021/11/14 06:45:09;;;;;;;12.27;7.50;;;;;;;;;;5008904;28;20017;-66
2021/11/14 06:47:34;;;;;;;9.40;6.68;;;;;;;;;;5007348;28;20076;-66
2021/11/14 06:50:00;;;;;;;11.35;6.75;;;;;;;;;;5008120;28;20018;-67
2021/11/14 06:52:25;;;;;;;9.60;6.03;;;;;;;;;;5009381;28;20474;-66
2021/11/14 06:54:51;;;;;;;9.93;5.93;;;;;;;;;;5007333;28;20030;-66
2021/11/14 06:57:18;;;;;;;8.50;5.45;;;;;;;;;;5009338;28;20021;-66
2021/11/14 06:59:43;;;;;;;11.68;5.85;;;;;;;;;;5009224;28;20319;-66
2021/11/14 07:02:08;;;;;;;11.95;6.40;;;;;;;;;;5007831;28;20034;-66
2021/11/14 07:04:34;;;;;;;11.23;5.10;;;;;;;;;;5007860;28;20029;-66
2021/11/14 07:06:59;;;;;;;16.08;5.53;;;;;;;;;;5007543;28;20088;-66
2021/11/14 07:09:24;;;;;;;11.75;6.03;;;;;;;;;;5010148;28;20073;-66
2021/11/14 07:11:51;;;;;;;7.80;5.10;;;;;;;;;;5009759;28;20018;-66
2021/11/14 07:14:16;;;;;;;7.35;4.88;;;;;;;;;;5009069;28;20018;-66
2021/11/14 07:16:41;;;;;;;7.95;5.28;;;;;;;;;;5010198;28;20029;-66
2021/11/14 07:19:07;;;;;;;8.32;5.47;;;;;;;;;;5009572;28;20389;-66
2021/11/14 07:21:32;;;;;;;10.18;5.43;;;;;;;;;;5007401;28;20413;-66
2021/11/14 07:23:57;;;;;;;9.50;5.18;;;;;;;;;;5010234;28;20018;-66
2021/11/14 07:26:23;;;;;;;7.88;5.05;;;;;;;;;;5004066;28;20403;-66
2021/11/14 07:28:48;;;;;;;7.50;4.75;;;;;;;;;;5007518;28;20018;-66
2021/11/14 07:31:13;;;;;;;6.63;4.85;;;;;;;;;;5010200;28;20096;-66
2021/11/14 07:33:38;;;;;;;7.18;4.90;;;;;;;;;;5010082;28;20022;-66
2021/11/14 07:36:03;;;;;;;8.82;5.05;;;;;;;;;;5009866;28;20028;-66
2021/11/14 07:38:29;;;;;;;7.72;4.68;;;;;;;;;;5007885;28;20084;-66
2021/11/14 07:40:54;;;;;;;6.38;4.95;;;;;;;;;;5009090;28;20018;-66
2021/11/14 07:43:20;;;;;;;6.95;4.53;;;;;;;;;;5009643;28;20025;-66
2021/11/14 07:45:45;;;;;;;6.80;4.78;;;;;;;;;;5009705;28;20033;-66
2021/11/14 07:48:11;;;;;;;6.43;4.22;;;;;;;;;;5009970;28;20057;-66
2021/11/14 07:50:37;;;;;;;7.63;4.60;;;;;;;;;;5010166;28;20033;-66
2021/11/14 07:53:03;;;;;;;7.65;5.07;;;;;;;;;;5015546;28;20080;-66
2021/11/14 07:55:28;;;;;;;6.43;4.15;;;;;;;;;;5012466;28;20482;-66
2021/11/14 07:57:54;;;;;;;5.43;4.20;;;;;;;;;;5013149;28;20092;-66
2021/11/14 08:00:20;;;;;;;4.75;3.38;;;;;;;;;;5012641;28;20494;-66
2021/11/14 08:02:46;;;;;;;5.38;4.07;;;;;;;;;;5012916;28;20021;-66
2021/11/14 08:05:12;;;;;;;6.22;4.18;;;;;;;;;;5012029;28;20028;-66
2021/11/14 08:07:37;;;;;;;5.53;3.92;;;;;;;;;;5012948;28;20024;-66
2021/11/14 08:10:03;;;;;;;4.43;3.50;;;;;;;;;;5010472;28;20101;-66
2021/11/14 08:12:28;;;;;;;4.65;3.00;;;;;;;;;;5007432;28;20129;-66
2021/11/14 08:14:53;;;;;;;5.82;3.50;;;;;;;;;;5010260;28;20185;-66
2021/11/14 08:17:19;;;;;;;7.33;2.93;;;;;;;;;;5010330;28;20021;-66
2021/11/14 08:19:44;;;;;;;3.85;2.80;;;;;;;;;;5009969;28;20269;-66
2021/11/14 08:22:09;;;;;;;3.40;2.60;;;;;;;;;;5009737;28;20449;-66
2021/11/14 08:24:34;;;;;;;4.10;3.00;;;;;;;;;;5011011;28;20022;-66
2021/11/14 08:27:00;;;;;;;5.20;3.58;;;;;;;;;;5010267;28;20014;-66
2021/11/14 08:29:25;;;;;;;5.15;3.22;;;;;;;;;;5016301;28;20033;-66
2021/11/14 08:31:50;;;;;;;4.90;3.20;;;;;;;;;;5011865;28;20152;-66
2021/11/14 08:34:16;;;;;;;8.18;3.47;;;;;;;;;;5012664;28;20026;-65
2021/11/14 08:36:41;;;;;;;4.00;3.10;;;;;;;;;;5012649;28;20021;-65
2021/11/14 08:39:06;;;;;;;4.72;3.13;;;;;;;;;;5010294;28;20028;-65
2021/11/14 08:41:32;;;;;;;4.57;3.10;;;;;;;;;;5011753;28;20018;-66
2021/11/14 08:43:57;;;;;;;5.30;3.10;;;;;;;;;;5012247;28;20096;-65
2021/11/14 08:46:22;;;;;;;5.78;3.08;;;;;;;;;;5012333;28;20113;-66
2021/11/14 08:48:47;;;;;;;7.30;2.90;;;;;;;;;;5008914;28;20025;-65
2021/11/14 08:51:13;;;;;;;6.82;2.70;;;;;;;;;;5010248;28;20026;-65
2021/11/14 08:53:38;;;;;;;3.88;2.80;;;;;;;;;;5009761;28;20471;-65
2021/11/14 08:56:03;;;;;;;3.63;2.73;;;;;;;;;;5010288;28;20049;-66
2021/11/14 08:58:30;;;;;;;6.05;2.20;;;;;;;;;;5009355;28;20276;-66
2021/11/14 09:00:56;;;;;;;3.33;2.13;;;;;;;;;;5011297;28;20049;-66
2021/11/14 09:03:21;;;;;;;3.28;2.47;;;;;;;;;;5010485;28;20439;-65
2021/11/14 09:05:46;;;;;;;3.05;2.25;;;;;;;;;;4993481;28;20093;-66
2021/11/14 09:08:12;;;;;;;3.80;2.78;;;;;;;;;;5009270;28;20489;-66
2021/11/14 09:10:40;;;;;;;3.55;2.40;;;;;;;;;;5009634;28;20018;-66
2021/11/14 09:13:06;;;;;;;2.17;1.67;;;;;;;;;;5008420;28;20462;-65
2021/11/14 09:15:32;;;;;;;4.03;2.55;;;;;;;;;;5009932;28;20069;-66
2021/11/14 09:17:57;;;;;;;3.92;2.28;;;;;;;;;;5010033;28;20546;-65
2021/11/14 09:20:23;;;;;;;3.17;1.80;;;;;;;;;;5010898;28;20177;-66
2021/11/14 09:22:49;;;;;;;2.45;1.95;;;;;;;;;;5012168;28;20022;-66
2021/11/14 09:25:14;;;;;;;4.25;2.33;;;;;;;;;;5010800;28;20032;-65
2021/11/14 09:27:40;;;;;;;2.30;1.40;;;;;;;;;;5009386;28;20382;-65
2021/11/14 09:30:06;;;;;;;2.90;1.60;;;;;;;;;;5009726;28;20033;-65
2021/11/14 09:32:31;;;;;;;1.92;1.40;;;;;;;;;;5006219;28;20021;-65
2021/11/14 09:34:56;;;;;;;4.65;1.58;;;;;;;;;;5011624;28;20487;-65
2021/11/14 09:37:22;;;;;;;1.80;1.38;;;;;;;;;;5011055;28;20100;-66
2021/11/14 09:39:47;;;;;;;2.17;1.38;;;;;;;;;;5011479;28;20101;-65
2021/11/14 09:42:12;;;;;;;2.20;1.30;;;;;;;;;;5010087;28;20475;-66
2021/11/14 09:44:37;;;;;;;2.30;1.25;;;;;;;;;;5005319;28;20281;-66
2021/11/14 09:47:03;;;;;;;1.73;1.05;;;;;;;;;;5004341;28;20029;-66
2021/11/14 09:49:30;;;;;;;1.00;0.85;;;;;;;;;;5013999;28;20021;-66
2021/11/14 09:51:56;;;;;;;2.42;1.20;;;;;;;;;;5012408;28;20054;-66
2021/11/14 09:54:23;;;;;;;1.30;1.05;;;;;;;;;;5010419;28;20355;-66
2021/11/14 09:56:48;;;;;;;1.35;0.98;;;;;;;;;;5011108;28;20018;-66
2021/11/14 09:59:14;;;;;;;1.42;1.33;;;;;;;;;;5010759;28;20105;-66
2021/11/14 10:01:39;;;;;;;2.63;0.98;;;;;;;;;;5011117;28;20105;-65
2021/11/14 10:04:07;;;;;;;2.00;0.90;;;;;;;;;;5010744;28;20017;-65
2021/11/14 10:06:33;;;;;;;2.83;1.15;;;;;;;;;;5011005;28;20112;-66
2021/11/14 10:08:58;;;;;;;2.75;0.98;;;;;;;;;;5010693;28;20105;-65
2021/11/14 10:11:30;;;;;;;1.92;1.13;;;;;;;;;;5011127;28;20022;-65
2021/11/14 10:13:55;;;;;;;1.35;1.00;;;;;;;;;;5009839;28;20060;-65
2021/11/14 10:16:21;;;;;;;1.17;0.97;;;;;;;;;;5009933;28;20430;-66
2021/11/14 10:18:50;;;;;;;0.88;0.68;;;;;;;;;;5033733;23;20316;-70
2021/11/14 10:21:15;;;;;;;4.63;0.98;;;;;;;;;;5008552;28;20028;-71
2021/11/14 10:23:41;;;;;;;0.98;0.60;;;;;;;;;;5010129;28;20022;-71
2021/11/14 10:26:08;;;;;;;1.40;0.77;;;;;;;;;;5010919;28;20300;-71
2021/11/14 10:28:33;;;;;;;1.48;0.90;;;;;;;;;;5009857;28;20021;-71
2021/11/14 10:30:59;;;;;;;1.50;0.93;;;;;;;;;;5010537;28;20032;-71
2021/11/14 10:33:25;;;;;;;1.88;1.15;;;;;;;;;;5009738;28;20446;-71
2021/11/14 10:35:51;;;;;;;1.20;0.90;;;;;;;;;;5010314;28;20022;-71
2021/11/14 10:38:18;;;;;;;1.20;1.02;;;;;;;;;;5010195;28;20355;-71
2021/11/14 10:40:45;;;;;;;1.40;1.00;;;;;;;;;;5010308;28;20029;-71
2021/11/14 10:43:11;;;;;;;1.38;1.08;;;;;;;;;;5008887;28;20355;-71
2021/11/14 10:45:38;;;;;;;1.83;1.23;;;;;;;;;;5010357;28;20152;-71
2021/11/14 10:48:05;;;;;;;1.65;1.10;;;;;;;;;;5010157;28;20018;-71
2021/11/14 10:50:32;;;;;;;1.67;1.40;;;;;;;;;;5010407;28;20025;-71
2021/11/14 10:52:59;;;;;;;1.63;1.10;;;;;;;;;;5007349;28;20528;-71
2021/11/14 10:55:25;;;;;;;1.25;0.93;;;;;;;;;;5007664;28;20029;-71
2021/11/14 10:57:51;;;;;;;3.00;1.20;;;;;;;;;;5007739;28;20033;-71
2021/11/14 11:00:17;;;;;;;1.63;1.27;;;;;;;;;;5007203;28;20389;-71
2021/11/14 11:02:43;;;;;;;1.60;1.00;;;;;;;;;;5009526;28;20022;-71
2021/11/14 11:05:12;;;;;;;2.17;1.55;;;;;;;;;;5007168;28;20033;-71
2021/11/14 11:07:39;;;;;;;3.50;1.30;;;;;;;;;;5008018;28;20113;-71
2021/11/14 11:10:04;;;;;;;3.60;1.60;;;;;;;;;;5007929;28;20493;-70
2021/11/14 11:12:31;;;;;;;2.15;1.10;;;;;;;;;;5007927;28;20017;-71
2021/11/14 11:14:59;;;;;;;1.75;1.25;;;;;;;;;;5004992;28;20048;-70
2021/11/14 11:17:28;;;;;;;5.00;2.05;;;;;;;;;;5005621;28;20022;-73
2021/11/14 11:20:06;;;;;;;1.08;0.82;;;;;;;;;;5009227;28;20520;-70
2021/11/14 11:22:32;;;;;;;1.85;1.42;;;;;;;;;;5008758;28;20064;-70
2021/11/14 11:24:57;;;;;;;1.65;1.00;;;;;;;;;;5007549;28;20054;-70
2021/11/14 11:27:22;;;;;;;1.35;1.02;;;;;;;;;;5013356;28;20160;-70
2021/11/14 11:29:47;;;;;;;2.67;1.17;;;;;;;;;;5014174;28;20040;-70
2021/11/14 11:32:14;;;;;;;2.70;1.00;;;;;;;;;;5010741;28;20030;-70
2021/11/14 11:34:42;;;;;;;1.27;0.82;;;;;;;;;;5013915;28;20696;-70
2021/11/14 11:37:07;;;;;;;2.08;1.30;;;;;;;;;;5012651;28;20021;-71
2021/11/14 11:39:32;;;;;;;1.50;1.10;;;;;;;;;;5009026;28;20022;-69
2021/11/14 11:41:59;;;;;;;2.67;1.20;;;;;;;;;;5013412;28;20057;-71
2021/11/14 11:44:25;;;;;;;4.05;1.33;;;;;;;;;;5013130;28;20026;-71
2021/11/14 11:46:51;;;;;;;1.10;0.90;;;;;;;;;;5013837;28;20083;-72
2021/11/14 11:49:36;;;;;;;3.95;1.88;;;;;;;;;;5013397;28;20022;-72
2021/11/14 11:52:05;;;;;;;1.50;1.02;;;;;;;;;;5012520;28;20132;-72
2021/11/14 11:54:32;;;;;;;1.15;0.80;;;;;;;;;;5013100;28;20033;-71
2021/11/14 11:56:59;;;;;;;3.10;0.88;;;;;;;;;;5013184;28;20021;-72
2021/11/14 11:59:26;;;;;;;3.75;0.80;;;;;;;;;;5011415;28;20041;-71
2021/11/14 12:01:52;;;;;;;2.25;0.80;;;;;;;;;;5010525;28;20073;-72
2021/11/14 12:04:20;;;;;;;1.55;1.02;;;;;;;;;;5012719;28;20056;-72
2021/11/14 12:06:47;;;;;;;4.53;1.02;;;;;;;;;;5012964;28;20096;-72
2021/11/14 12:09:13;;;;;;;2.75;1.20;;;;;;;;;;5012831;28;20017;-72
2021/11/14 12:11:40;;;;;;;1.98;0.82;;;;;;;;;;5013503;28;20033;-72
2021/11/14 12:14:24;;;;;;;1.17;0.95;;;;;;;;;;5011310;28;20083;-72
2021/11/14 12:16:57;;;;;;;2.92;1.10;;;;;;;;;;5013846;28;20030;-72
2021/11/14 12:19:25;;;;;;;1.85;0.80;;;;;;;;;;4993680;28;20030;-72
2021/11/14 12:22:22;;;;;;;1.60;0.68;;;;;;;;;;5011346;28;20026;-72
2021/11/14 12:24:47;;;;;;;1.33;0.93;;;;;;;;;;4998163;28;20034;-72
2021/11/14 12:27:22;;;;;;;2.03;1.23;;;;;;;;;;5017069;28;20508;-72
2021/11/14 12:29:55;;;;;;;2.05;1.00;;;;;;;;;;5013247;28;20105;-70
2021/11/14 12:32:28;;;;;;;1.25;0.90;;;;;;;;;;5014790;28;20348;-71
2021/11/14 12:35:00;;;;;;;6.53;1.20;;;;;;;;;;5012738;28;20061;-71
2021/11/14 12:37:25;;;;;;;1.90;0.95;;;;;;;;;;5011564;28;20026;-71
2021/11/14 12:39:50;;;;;;;2.10;1.10;;;;;;;;;;5012186;28;20032;-71
2021/11/14 12:42:17;;;;;;;1.77;1.00;;;;;;;;;;5007410;28;20801;-72
2021/11/14 12:44:50;;;;;;;2.17;1.48;;;;;;;;;;5006318;28;20033;-72
2021/11/14 12:47:15;;;;;;;2.50;1.50;;;;;;;;;;5012191;28;20025;-72
2021/11/14 12:49:40;;;;;;;1.98;0.90;;;;;;;;;;5012279;28;20029;-71
2021/11/14 12:52:06;;;;;;;1.45;1.00;;;;;;;;;;5011356;28;20014;-71
2021/11/14 12:54:32;;;;;;;2.28;1.20;;;;;;;;;;5010657;28;20578;-72
2021/11/14 12:57:06;;;;;;;2.10;1.20;;;;;;;;;;5011041;28;20057;-72
2021/11/14 12:59:32;;;;;;;2.03;1.17;;;;;;;;;;4997083;28;20032;-72
2021/11/14 13:01:59;;;;;;;2.25;1.13;;;;;;;;;;5004863;28;20196;-72
2021/11/14 13:04:26;;;;;;;1.60;1.10;;;;;;;;;;5011364;28;20049;-72
2021/11/14 13:06:52;;;;;;;1.50;1.08;;;;;;;;;;5011607;28;20042;-72
2021/11/14 13:09:19;;;;;;;2.15;1.15;;;;;;;;;;5011895;28;20053;-72
2021/11/14 13:11:44;;;;;;;1.38;1.00;;;;;;;;;;5006533;28;20014;-72
2021/11/14 13:14:14;;;;;;;1.55;1.05;;;;;;;;;;5011852;28;20105;-72
2021/11/14 13:16:40;;;;;;;2.38;1.10;;;;;;;;;;5011149;28;20064;-72
2021/11/14 13:19:06;;;;;;;1.88;1.10;;;;;;;;;;5011514;28;20026;-72
2021/11/14 13:21:36;;;;;;;1.50;1.10;;;;;;;;;;5015424;28;20022;-72
2021/11/14 13:24:09;;;;;;;1.35;1.05;;;;;;;;;;5008486;28;20038;-72
2021/11/14 13:26:40;;;;;;;2.08;1.10;;;;;;;;;;5010272;28;20034;-72
2021/11/14 13:29:10;;;;;;;1.67;1.02;;;;;;;;;;5011040;28;20379;-72
2021/11/14 13:31:36;;;;;;;3.40;1.13;;;;;;;;;;5010784;28;20018;-72
2021/11/14 13:34:03;;;;;;;1.73;1.02;;;;;;;;;;5011142;28;20025;-72
2021/11/14 13:36:30;;;;;;;2.42;0.90;;;;;;;;;;5008201;28;20049;-72
2021/11/14 13:38:56;;;;;;;1.95;1.10;;;;;;;;;;5005988;28;20436;-72
2021/11/14 13:41:22;;;;;;;2.42;1.02;;;;;;;;;;5005226;28;20383;-72
2021/11/14 13:43:55;;;;;;;8.93;1.10;;;;;;;;;;5010217;28;20029;-72
2021/11/14 13:46:24;;;;;;;2.17;1.05;;;;;;;;;;5009212;28;20148;-72
2021/11/14 13:48:54;;;;;;;3.25;1.38;;;;;;;;;;5019591;28;20423;-72
2021/11/14 13:51:19;;;;;;;2.03;1.00;;;;;;;;;;5011907;28;20058;-72
2021/11/14 13:53:44;;;;;;;1.67;1.10;;;;;;;;;;5022653;28;20374;-72
2021/11/14 13:56:10;;;;;;;2.05;1.30;;;;;;;;;;5012655;28;20025;-72
2021/11/14 13:58:36;;;;;;;1.70;1.25;;;;;;;;;;5012196;28;20026;-72
2021/11/14 14:01:03;;;;;;;1.77;1.20;;;;;;;;;;5025504;28;20026;-72
2021/11/14 14:03:28;;;;;;;1.80;1.17;;;;;;;;;;5019010;28;20027;-72
2021/11/14 14:05:55;;;;;;;1.75;1.35;;;;;;;;;;5018873;28;20077;-72
2021/11/14 14:08:24;;;;;;;2.40;1.77;;;;;;;;;;5012285;28;20491;-72
2021/11/14 14:10:50;;;;;;;2.95;2.03;;;;;;;;;;5012630;28;20026;-72
2021/11/14 14:13:17;;;;;;;3.47;1.50;;;;;;;;;;5010774;28;20080;-72
2021/11/14 14:15:42;;;;;;;4.80;1.98;;;;;;;;;;5010055;28;20135;-72
2021/11/14 14:18:18;;;;;;;2.65;1.58;;;;;;;;;;5014383;28;20137;-72
2021/11/14 14:20:43;;;;;;;4.65;2.00;;;;;;;;;;5018200;28;20029;-72
2021/11/14 14:23:09;;;;;;;3.45;1.50;;;;;;;;;;5030769;28;20017;-72
2021/11/14 14:25:36;;;;;;;4.30;2.00;;;;;;;;;;5012860;28;20028;-72
2021/11/14 14:28:07;;;;;;;3.42;1.30;;;;;;;;;;5002728;28;20049;-72
2021/11/14 14:30:33;;;;;;;5.15;1.50;;;;;;;;;;5010410;28;20025;-72
2021/11/14 14:33:00;;;;;;;2.38;1.00;;;;;;;;;;5009820;28;20041;-72
2021/11/14 14:35:30;;;;;;;2.72;1.33;;;;;;;;;;5010461;28;20049;-72